createdAt,value
2022-10-18T00:00:15.042Z,97376.41
2022-10-18T00:02:41.376Z,97377.50
2022-10-18T00:05:07.695Z,97374.09
2022-10-18T00:07:34.081Z,97374.56
2022-10-18T00:10:00.446Z,97382.88
2022-10-18T00:12:26.779Z,97382.34
2022-10-18T00:14:53.115Z,97367.81
2022-10-18T00:17:19.445Z,97375.03
2022-10-18T00:19:45.775Z,97380.69
2022-10-18T00:22:12.100Z,97380.69
2022-10-18T00:24:38.432Z,97382.88
2022-10-18T00:27:04.746Z,97382.28
2022-10-18T00:29:31.078Z,97383.91
2022-10-18T00:31:57.409Z,97386.59
2022-10-18T00:34:23.749Z,97378.53
2022-10-18T00:36:50.112Z,97384.44
2022-10-18T00:39:16.440Z,97388.22
2022-10-18T00:41:42.777Z,97380.19
2022-10-18T00:44:09.118Z,97382.88
2022-10-18T00:46:35.439Z,97369.97
2022-10-18T00:49:01.783Z,97382.63
2022-10-18T00:51:28.121Z,97383.16
2022-10-18T00:53:54.453Z,97381.25
2022-10-18T00:56:20.820Z,97374.31
2022-10-18T00:58:47.139Z,97387.69
2022-10-18T01:01:13.510Z,97386.03
2022-10-18T01:03:39.845Z,97380.22
2022-10-18T01:06:06.172Z,97377.59
2022-10-18T01:08:32.510Z,97384.19
2022-10-18T01:10:58.837Z,97381.31
2022-10-18T01:13:25.919Z,97389.34
2022-10-18T01:15:52.469Z,97393.31
2022-10-18T01:18:18.860Z,97390.59
2022-10-18T01:20:45.171Z,97390.34
2022-10-18T01:23:11.500Z,97390.03
2022-10-18T01:25:37.836Z,97385.25
2022-10-18T01:28:04.159Z,97386.59
2022-10-18T01:30:30.481Z,97383.06
2022-10-18T01:32:56.827Z,97385.00
2022-10-18T01:35:23.163Z,97385.59
2022-10-18T01:37:49.496Z,97380.75
2022-10-18T01:40:15.833Z,97382.88
2022-10-18T01:42:42.157Z,97384.97
2022-10-18T01:45:08.493Z,97389.84
2022-10-18T01:47:34.824Z,97391.94
2022-10-18T01:50:01.168Z,97386.59
2022-10-18T01:52:27.739Z,97393.88
2022-10-18T01:54:54.256Z,97384.56
2022-10-18T01:57:20.579Z,97391.50
2022-10-18T01:59:46.895Z,97385.59
2022-10-18T02:02:13.212Z,97380.81
2022-10-18T02:04:39.542Z,97377.03
2022-10-18T02:07:05.877Z,97380.22
2022-10-18T02:09:32.205Z,97376.47
2022-10-18T02:11:58.540Z,97385.00
2022-10-18T02:14:24.869Z,97378.66
2022-10-18T02:16:51.196Z,97375.47
2022-10-18T02:19:17.584Z,97374.88
2022-10-18T02:21:43.961Z,97377.28
2022-10-18T02:24:10.290Z,97381.25
2022-10-18T02:26:36.614Z,97374.31
2022-10-18T02:29:02.950Z,97363.63
2022-10-18T02:31:29.280Z,97370.06
2022-10-18T02:33:55.630Z,97360.66
2022-10-18T02:36:21.953Z,97365.28
2022-10-18T02:38:48.289Z,97371.63
2022-10-18T02:41:14.625Z,97370.09
2022-10-18T02:43:40.948Z,97377.00
2022-10-18T02:46:07.289Z,97366.34
2022-10-18T02:48:33.611Z,97372.22
2022-10-18T02:50:59.943Z,97371.19
2022-10-18T02:53:26.259Z,97370.09
2022-10-18T02:55:52.581Z,97374.09
2022-10-18T02:58:18.932Z,97371.63
2022-10-18T03:00:47.052Z,97379.72
2022-10-18T03:03:13.388Z,97378.66
2022-10-18T03:05:39.738Z,97383.44
2022-10-18T03:08:06.075Z,97390.94
2022-10-18T03:10:32.394Z,97395.19
2022-10-18T03:12:58.729Z,97393.09
2022-10-18T03:15:25.073Z,97394.13
2022-10-18T03:17:51.399Z,97393.31
2022-10-18T03:20:17.728Z,97392.75
2022-10-18T03:22:44.048Z,97390.13
2022-10-18T03:25:10.383Z,97390.41
2022-10-18T03:27:36.726Z,97387.44
2022-10-18T03:30:03.059Z,97392.59
2022-10-18T03:32:29.525Z,97402.19
2022-10-18T03:34:55.916Z,97396.84
2022-10-18T03:37:22.245Z,97406.72
2022-10-18T03:39:48.584Z,97405.19
2022-10-18T03:42:14.917Z,97406.72
2022-10-18T03:44:41.248Z,97412.88
2022-10-18T03:47:07.575Z,97407.03
2022-10-18T03:52:00.124Z,97420.38
2022-10-18T03:54:26.457Z,97424.97
2022-10-18T03:56:52.785Z,97417.78
2022-10-18T03:59:19.133Z,97415.03
2022-10-18T04:01:45.525Z,97424.97
2022-10-18T04:04:11.917Z,97424.16
2022-10-18T04:06:38.255Z,97432.00
2022-10-18T04:09:07.874Z,97434.88
2022-10-18T04:11:36.525Z,97434.84
2022-10-18T04:14:02.850Z,97427.38
2022-10-18T04:16:29.214Z,97438.59
2022-10-18T04:18:55.587Z,97436.22
2022-10-18T04:21:21.940Z,97442.22
2022-10-18T04:23:48.272Z,97437.34
2022-10-18T04:26:14.601Z,97440.91
2022-10-18T04:28:40.965Z,97439.25
2022-10-18T04:31:07.338Z,97442.00
2022-10-18T04:33:33.668Z,97437.72
2022-10-18T04:35:59.998Z,97431.88
2022-10-18T04:38:26.334Z,97434.81
2022-10-18T04:40:52.660Z,97429.13
2022-10-18T04:43:18.987Z,97429.69
2022-10-18T04:45:45.321Z,97443.72
2022-10-18T04:48:11.757Z,97443.13
2022-10-18T04:50:38.087Z,97443.81
2022-10-18T04:53:04.430Z,97450.06
2022-10-18T04:55:30.786Z,97445.41
2022-10-18T04:57:57.119Z,97436.09
2022-10-18T05:00:23.454Z,97443.13
2022-10-18T05:02:49.786Z,97443.59
2022-10-18T05:05:16.126Z,97449.72
2022-10-18T05:07:42.865Z,97448.13
2022-10-18T05:10:09.536Z,97450.50
2022-10-18T05:12:35.916Z,97444.38
2022-10-18T05:15:04.130Z,97445.72
2022-10-18T05:17:30.652Z,97444.03
2022-10-18T05:19:57.025Z,97446.78
2022-10-18T05:22:26.332Z,97451.34
2022-10-18T05:24:52.825Z,97454.53
2022-10-18T05:27:19.162Z,97446.50
2022-10-18T05:29:48.611Z,97457.47
2022-10-18T05:32:14.958Z,97454.84
2022-10-18T05:34:41.489Z,97457.47
2022-10-18T05:37:11.561Z,97455.84
2022-10-18T05:39:38.081Z,97448.13
2022-10-18T05:42:04.413Z,97450.75
2022-10-18T05:44:30.754Z,97441.88
2022-10-18T05:46:57.090Z,97444.03
2022-10-18T05:49:23.428Z,97450.47
2022-10-18T05:51:49.773Z,97445.72
2022-10-18T05:54:16.095Z,97449.00
2022-10-18T05:56:42.419Z,97449.34
2022-10-18T05:59:08.736Z,97447.97
2022-10-18T06:01:35.054Z,97446.94
2022-10-18T06:04:01.390Z,97445.88
2022-10-18T06:06:27.721Z,97447.66
2022-10-18T06:08:54.049Z,97449.38
2022-10-18T06:11:20.371Z,97447.56
2022-10-18T06:13:46.703Z,97440.31
2022-10-18T06:16:13.115Z,97449.38
2022-10-18T06:18:39.497Z,97448.47
2022-10-18T06:21:05.833Z,97452.50
2022-10-18T06:23:32.164Z,97445.28
2022-10-18T06:25:58.495Z,97453.81
2022-10-18T06:28:24.857Z,97446.84
2022-10-18T06:30:51.190Z,97451.22
2022-10-18T06:33:17.535Z,97454.34
2022-10-18T06:35:43.880Z,97468.22
2022-10-18T06:38:10.208Z,97469.28
2022-10-18T06:40:36.608Z,97461.19
2022-10-18T06:43:19.706Z,97464.66
2022-10-18T06:45:47.193Z,97464.38
2022-10-18T06:48:13.591Z,97464.84
2022-10-18T06:50:39.976Z,97468.06
2022-10-18T06:53:06.315Z,97468.63
2022-10-18T06:55:32.654Z,97476.59
2022-10-18T06:57:58.984Z,97468.06
2022-10-18T07:00:25.331Z,97466.47
2022-10-18T07:02:51.659Z,97479.28
2022-10-18T07:05:18.012Z,97476.59
2022-10-18T07:07:44.348Z,97474.44
2022-10-18T07:10:13.024Z,97473.66
2022-10-18T07:12:39.748Z,97482.97
2022-10-18T07:15:09.338Z,97479.78
2022-10-18T07:17:35.990Z,97484.56
2022-10-18T07:20:02.354Z,97482.97
2022-10-18T07:22:30.414Z,97493.63
2022-10-18T07:24:56.869Z,97495.25
2022-10-18T07:27:23.211Z,97501.41
2022-10-18T07:29:49.564Z,97491.53
2022-10-18T07:32:15.901Z,97496.88
2022-10-18T07:34:42.253Z,97493.91
2022-10-18T07:37:08.602Z,97496.31
2022-10-18T07:39:34.937Z,97495.75
2022-10-18T07:42:01.305Z,97491.72
2022-10-18T07:44:27.648Z,97489.03
2022-10-18T07:46:53.962Z,97487.47
2022-10-18T07:49:20.305Z,97490.97
2022-10-18T07:51:46.629Z,97482.97
2022-10-18T07:54:12.976Z,97490.97
2022-10-18T07:56:39.303Z,97498.91
2022-10-18T07:59:05.648Z,97498.69
2022-10-18T08:01:32.065Z,97494.13
2022-10-18T08:04:01.041Z,97491.72
2022-10-18T08:06:29.693Z,97497.88
2022-10-18T08:08:56.026Z,97492.25
2022-10-18T08:11:22.365Z,97499.47
2022-10-18T08:13:48.709Z,97497.88
2022-10-18T08:16:15.047Z,97494.94
2022-10-18T08:18:41.380Z,97486.63
2022-10-18T08:21:07.718Z,97489.81
2022-10-18T08:23:34.051Z,97497.09
2022-10-18T08:26:00.386Z,97491.97
2022-10-18T08:28:26.763Z,97494.13
2022-10-18T08:30:53.146Z,97496.81
2022-10-18T08:33:19.480Z,97495.75
2022-10-18T08:35:45.810Z,97485.81
2022-10-18T08:38:16.530Z,97490.41
2022-10-18T08:40:45.191Z,97488.78
2022-10-18T08:43:11.533Z,97487.16
2022-10-18T08:45:42.457Z,97485.81
2022-10-18T08:48:09.294Z,97491.44
2022-10-18T08:50:35.679Z,97489.03
2022-10-18T08:53:02.034Z,97493.00
2022-10-18T08:55:28.360Z,97486.63
2022-10-18T08:57:54.691Z,97480.75
2022-10-18T09:00:21.055Z,97478.09
2022-10-18T09:02:47.400Z,97482.88
2022-10-18T09:05:13.739Z,97471.16
2022-10-18T09:07:40.075Z,97471.16
2022-10-18T09:10:06.682Z,97478.09
2022-10-18T09:12:33.513Z,97477.06
2022-10-18T09:15:00.140Z,97478.66
2022-10-18T09:17:26.486Z,97471.72
2022-10-18T09:19:52.881Z,97465.28
2022-10-18T09:22:19.244Z,97477.06
2022-10-18T09:24:45.593Z,97471.72
2022-10-18T09:27:11.923Z,97472.28
2022-10-18T09:29:38.267Z,97473.09
2022-10-18T09:32:04.610Z,97462.16
2022-10-18T09:34:30.944Z,97462.97
2022-10-18T09:36:57.275Z,97466.69
2022-10-18T09:39:23.610Z,97459.47
2022-10-18T09:41:49.957Z,97457.88
2022-10-18T09:44:16.303Z,97462.59
2022-10-18T09:46:42.644Z,97463.16
2022-10-18T09:49:11.751Z,97460.56
2022-10-18T09:51:40.664Z,97451.97
2022-10-18T09:54:07.009Z,97451.47
2022-10-18T09:56:36.693Z,97454.66
2022-10-18T09:59:05.825Z,97457.38
2022-10-18T10:01:32.161Z,97452.81
2022-10-18T10:03:58.491Z,97455.78
2022-10-18T10:06:24.818Z,97449.88
2022-10-18T10:08:51.140Z,97449.34
2022-10-18T10:11:17.473Z,97447.19
2022-10-18T10:13:43.820Z,97454.66
2022-10-18T10:16:10.152Z,97449.88
2022-10-18T10:18:36.468Z,97445.09
2022-10-18T10:21:02.801Z,97446.09
2022-10-18T10:23:29.137Z,97444.53
2022-10-18T10:25:55.467Z,97446.09
2022-10-18T10:28:21.807Z,97446.66
2022-10-18T10:30:48.121Z,97446.66
2022-10-18T10:33:14.459Z,97444.84
2022-10-18T10:35:56.091Z,97448.25
2022-10-18T10:38:22.468Z,97444.53
2022-10-18T10:40:48.807Z,97442.41
2022-10-18T10:43:32.982Z,97442.91
2022-10-18T10:46:01.457Z,97449.88
2022-10-18T10:48:32.381Z,97439.22
2022-10-18T10:50:59.527Z,97439.47
2022-10-18T10:53:25.856Z,97437.06
2022-10-18T10:55:52.433Z,97432.28
2022-10-18T10:58:18.829Z,97429.03
2022-10-18T11:00:45.169Z,97427.44
2022-10-18T11:03:28.020Z,97429.81
2022-10-18T11:05:55.230Z,97420.75
2022-10-18T11:08:23.918Z,97421.53
2022-10-18T11:10:50.477Z,97409.81
2022-10-18T11:13:16.800Z,97407.66
2022-10-18T11:15:43.127Z,97409.25
2022-10-18T11:18:09.451Z,97406.63
2022-10-18T11:20:35.783Z,97410.38
2022-10-18T11:23:02.114Z,97410.38
2022-10-18T11:25:28.445Z,97401.84
2022-10-18T11:27:54.976Z,97403.44
2022-10-18T11:30:21.337Z,97391.94
2022-10-18T11:32:47.667Z,97390.06
2022-10-18T11:35:13.996Z,97389.56
2022-10-18T11:37:40.484Z,97385.78
2022-10-18T11:40:06.921Z,97383.41
2022-10-18T11:42:35.683Z,97377.28
2022-10-18T11:45:05.446Z,97373.75
2022-10-18T11:47:32.142Z,97368.16
2022-10-18T11:49:58.684Z,97366.59
2022-10-18T11:52:25.013Z,97363.41
2022-10-18T11:54:51.343Z,97355.94
2022-10-18T11:57:17.677Z,97354.84
2022-10-18T11:59:44.024Z,97348.50
2022-10-18T12:02:10.408Z,97334.03
2022-10-18T12:04:45.037Z,97337.81
2022-10-18T12:07:27.856Z,97335.13
2022-10-18T12:09:56.620Z,97337.81
2022-10-18T12:12:22.966Z,97330.88
2022-10-18T12:14:49.304Z,97330.06
2022-10-18T12:17:40.862Z,97325.00
2022-10-18T12:20:01.939Z,97318.56
2022-10-18T12:22:28.288Z,97322.34
2022-10-18T12:24:54.613Z,97311.66
2022-10-18T12:27:20.962Z,97315.38
2022-10-18T12:29:50.230Z,97310.03
2022-10-18T12:32:16.929Z,97300.94
2022-10-18T12:34:43.266Z,97306.28
2022-10-18T12:37:09.598Z,97304.69
2022-10-18T12:39:43.602Z,97302.00
2022-10-18T12:42:17.156Z,97299.34
2022-10-18T12:44:43.536Z,97296.66
2022-10-18T12:47:09.878Z,97288.66
2022-10-18T12:49:37.425Z,97283.31
2022-10-18T12:52:06.418Z,97282.53
2022-10-18T12:54:32.735Z,97282.25
2022-10-18T12:56:59.073Z,97276.91
2022-10-18T12:59:25.411Z,97283.31
2022-10-18T13:01:51.927Z,97274.22
2022-10-18T13:04:18.377Z,97274.22
2022-10-18T13:06:44.713Z,97274.22
2022-10-18T13:09:11.048Z,97277.41
2022-10-18T13:11:37.368Z,97270.47
2022-10-18T13:16:30.949Z,97258.97
2022-10-18T13:18:57.283Z,97258.97
2022-10-18T13:21:23.620Z,97260.56
2022-10-18T13:23:49.941Z,97259.78
2022-10-18T13:26:16.259Z,97255.53
2022-10-18T13:28:42.619Z,97255.53
2022-10-18T13:31:09.020Z,97261.63
2022-10-18T13:33:35.361Z,97258.72
2022-10-18T13:36:01.703Z,97254.44
2022-10-18T13:38:28.046Z,97250.69
2022-10-18T13:40:54.371Z,97247.50
2022-10-18T13:43:20.695Z,97246.41
2022-10-18T13:45:47.027Z,97252.28
2022-10-18T13:48:13.360Z,97257.09
2022-10-18T13:50:39.690Z,97256.59
2022-10-18T13:53:06.028Z,97265.41
2022-10-18T13:55:32.356Z,97255.00
2022-10-18T13:57:58.685Z,97256.09
2022-10-18T14:00:25.008Z,97256.59
2022-10-18T14:02:54.528Z,97250.47
2022-10-18T14:05:25.759Z,97250.94
2022-10-18T14:07:52.303Z,97245.88
2022-10-18T14:10:18.641Z,97245.88
2022-10-18T14:12:45.028Z,97244.31
2022-10-18T14:15:11.378Z,97236.81
2022-10-18T14:20:08.936Z,97243.75
2022-10-18T14:22:35.438Z,97235.19
2022-10-18T14:25:02.013Z,97236.81
2022-10-18T14:27:28.356Z,97240.53
2022-10-18T14:29:54.703Z,97231.47
2022-10-18T14:32:21.056Z,97234.13
2022-10-18T14:34:47.385Z,97236.81
2022-10-18T14:37:13.718Z,97230.66
2022-10-18T14:39:40.056Z,97232.25
2022-10-18T14:42:06.381Z,97231.47
2022-10-18T14:44:32.741Z,97227.69
2022-10-18T14:46:59.078Z,97225.03
2022-10-18T14:49:25.414Z,97233.06
2022-10-18T14:51:51.749Z,97228.78
2022-10-18T14:54:18.083Z,97226.13
2022-10-18T14:56:44.429Z,97226.91
2022-10-18T14:59:10.762Z,97227.69
2022-10-18T15:01:37.132Z,97233.06
2022-10-18T15:04:03.491Z,97225.03
2022-10-18T15:06:29.820Z,97220.78
2022-10-18T15:08:56.193Z,97221.56
2022-10-18T15:11:22.515Z,97216.22
2022-10-18T15:13:48.843Z,97215.44
2022-10-18T15:16:15.172Z,97221.56
2022-10-18T15:18:41.499Z,97210.09
2022-10-18T15:21:07.837Z,97209.28
2022-10-18T15:23:34.175Z,97204.75
2022-10-18T15:26:00.508Z,97210.09
2022-10-18T15:28:26.868Z,97210.09
2022-10-18T15:30:53.220Z,97217.00
2022-10-18T15:33:19.543Z,97209.00
2022-10-18T15:35:45.882Z,97211.66
2022-10-18T15:38:12.221Z,97210.09
2022-10-18T15:40:38.550Z,97199.41
2022-10-18T15:43:04.919Z,97188.72
2022-10-18T15:45:31.273Z,97190.53
2022-10-18T15:47:57.603Z,97183.88
2022-10-18T15:50:23.941Z,97178.78
2022-10-18T15:52:50.277Z,97179.59
2022-10-18T15:55:16.608Z,97173.19
2022-10-18T15:57:42.954Z,97173.44
2022-10-18T16:00:09.275Z,97165.44
2022-10-18T16:02:35.609Z,97172.69
2022-10-18T16:05:01.942Z,97168.91
2022-10-18T16:07:28.268Z,97175.88
2022-10-18T16:09:54.605Z,97173.19
2022-10-18T16:12:20.938Z,97175.06
2022-10-18T16:14:47.262Z,97175.06
2022-10-18T16:17:13.602Z,97174.25
2022-10-18T16:19:39.930Z,97163.56
2022-10-18T16:22:07.007Z,97164.09
2022-10-18T16:24:33.493Z,97165.16
2022-10-18T16:26:59.828Z,97170.53
2022-10-18T16:29:26.156Z,97171.94
2022-10-18T16:31:52.488Z,97160.63
2022-10-18T16:34:18.827Z,97167.13
2022-10-18T16:36:45.168Z,97167.41
2022-10-18T16:39:11.489Z,97173.19
2022-10-18T16:41:37.837Z,97177.94
2022-10-18T16:44:04.185Z,97174.13
2022-10-18T16:46:30.539Z,97178.88
2022-10-18T16:48:56.947Z,97175.13
2022-10-18T16:51:23.276Z,97179.69
2022-10-18T16:53:49.608Z,97176.75
2022-10-18T16:56:15.959Z,97182.09
2022-10-18T16:58:42.285Z,97180.47
2022-10-18T17:01:09.219Z,97183.44
2022-10-18T17:03:35.612Z,97177.88
2022-10-18T17:06:01.949Z,97182.44
2022-10-18T17:08:28.322Z,97177.09
2022-10-18T17:10:54.654Z,97181.63
2022-10-18T17:13:20.997Z,97185.41
2022-10-18T17:15:47.323Z,97191.31
2022-10-18T17:18:13.698Z,97192.72
2022-10-18T17:20:40.026Z,97196.16
2022-10-18T17:23:06.363Z,97202.03
2022-10-18T17:25:32.697Z,97209.75
2022-10-18T17:27:59.032Z,97202.03
2022-10-18T17:30:25.352Z,97207.88
2022-10-18T17:32:51.676Z,97212.72
2022-10-18T17:35:17.999Z,97213.13
2022-10-18T17:37:46.044Z,97214.72
2022-10-18T17:40:12.440Z,97220.06
2022-10-18T17:42:38.801Z,97221.34
2022-10-18T17:45:05.233Z,97218.78
2022-10-18T17:47:31.916Z,97218.47
2022-10-18T17:49:58.460Z,97222.25
2022-10-18T17:52:24.825Z,97219.06
2022-10-18T17:54:51.172Z,97222.25
2022-10-18T17:57:17.504Z,97223.59
2022-10-18T17:59:43.829Z,97217.19
2022-10-18T18:02:10.159Z,97218.63
2022-10-18T18:04:36.504Z,97225.31
2022-10-18T18:07:02.843Z,97222.34
2022-10-18T18:09:29.197Z,97230.38
2022-10-18T18:11:55.546Z,97232.25
2022-10-18T18:14:21.913Z,97231.47
2022-10-18T18:16:48.260Z,97233.06
2022-10-18T18:19:14.604Z,97233.84
2022-10-18T18:21:40.944Z,97241.59
2022-10-18T18:24:07.298Z,97236.47
2022-10-18T18:26:33.665Z,97239.63
2022-10-18T18:29:00.141Z,97242.03
2022-10-18T18:31:27.596Z,97245.78
2022-10-18T18:33:55.700Z,97244.97
2022-10-18T18:36:22.046Z,97250.03
2022-10-18T18:38:48.405Z,97253.53
2022-10-18T18:41:14.748Z,97248.97
2022-10-18T18:43:41.091Z,97250.56
2022-10-18T18:46:07.429Z,97248.97
2022-10-18T18:48:33.781Z,97246.31
2022-10-18T18:51:00.121Z,97250.56
2022-10-18T18:53:29.453Z,97247.38
2022-10-18T18:55:56.127Z,97250.03
2022-10-18T18:58:22.477Z,97246.22
2022-10-18T19:00:48.842Z,97246.97
2022-10-18T19:03:15.186Z,97248.56
2022-10-18T19:05:41.517Z,97252.59
2022-10-18T19:08:07.860Z,97252.03
2022-10-18T19:10:34.204Z,97247.69
2022-10-18T19:13:00.540Z,97248.50
2022-10-18T19:15:26.895Z,97250.88
2022-10-18T19:17:53.237Z,97257.28
2022-10-18T19:20:19.578Z,97259.75
2022-10-18T19:22:45.916Z,97256.56
2022-10-18T19:25:12.260Z,97253.59
2022-10-18T19:27:38.593Z,97245.31
2022-10-18T19:30:04.945Z,97246.09
2022-10-18T19:32:31.287Z,97252.03
2022-10-18T19:34:57.618Z,97253.59
2022-10-18T19:37:23.951Z,97246.69
2022-10-18T19:39:50.305Z,97249.84
2022-10-18T19:42:19.211Z,97250.94
2022-10-18T19:44:49.109Z,97254.03
2022-10-18T19:47:15.455Z,97249.06
2022-10-18T19:49:41.796Z,97251.50
2022-10-18T19:52:08.138Z,97248.84
2022-10-18T19:54:34.490Z,97250.94
2022-10-18T19:57:00.833Z,97257.38
2022-10-18T19:59:27.258Z,97258.97
2022-10-18T20:01:53.656Z,97253.59
2022-10-18T20:04:19.995Z,97245.06
2022-10-18T20:06:46.339Z,97246.69
2022-10-18T20:09:14.826Z,97244.00
2022-10-18T20:11:44.253Z,97247.25
2022-10-18T20:14:10.607Z,97244.00
2022-10-18T20:16:36.951Z,97247.75
2022-10-18T20:19:03.296Z,97238.94
2022-10-18T20:21:29.660Z,97242.97
2022-10-18T20:23:55.993Z,97249.41
2022-10-18T20:26:22.338Z,97251.56
2022-10-18T20:28:48.713Z,97253.75
2022-10-18T20:31:15.063Z,97251.38
2022-10-18T20:33:41.402Z,97252.13
2022-10-18T20:36:07.796Z,97239.88
2022-10-18T20:38:34.118Z,97237.72
2022-10-18T20:41:00.455Z,97246.78
2022-10-18T20:43:26.780Z,97252.13
2022-10-18T20:45:53.197Z,97249.19
2022-10-18T20:48:19.529Z,97245.22
2022-10-18T20:50:45.864Z,97235.91
2022-10-18T20:53:12.206Z,97245.78
2022-10-18T20:55:38.544Z,97244.22
2022-10-18T20:58:04.876Z,97244.22
2022-10-18T21:00:31.195Z,97246.88
2022-10-18T21:02:57.529Z,97237.25
2022-10-18T21:05:23.869Z,97235.66
2022-10-18T21:07:50.201Z,97235.66
2022-10-18T21:10:16.537Z,97239.44
2022-10-18T21:12:42.870Z,97235.66
2022-10-18T21:15:09.199Z,97235.16
2022-10-18T21:17:35.533Z,97232.47
2022-10-18T21:20:01.911Z,97228.50
2022-10-18T21:22:28.246Z,97234.13
2022-10-18T21:24:54.588Z,97220.25
2022-10-18T21:27:20.917Z,97220.25
2022-10-18T21:29:47.251Z,97219.41
2022-10-18T21:32:13.590Z,97222.34
2022-10-18T21:34:39.929Z,97221.84
2022-10-18T21:37:06.269Z,97221.34
2022-10-18T21:39:32.607Z,97216.00
2022-10-18T21:41:58.973Z,97219.75
2022-10-18T21:44:25.307Z,97218.16
2022-10-18T21:46:51.638Z,97218.38
2022-10-18T21:49:17.965Z,97218.69
2022-10-18T21:51:44.298Z,97218.97
2022-10-18T21:54:10.640Z,97215.19
2022-10-18T21:56:36.985Z,97214.41
2022-10-18T21:59:03.312Z,97210.44
2022-10-18T22:01:29.712Z,97217.06
2022-10-18T22:03:56.128Z,97209.34
2022-10-18T22:06:22.558Z,97211.22
2022-10-18T22:08:48.954Z,97206.47
2022-10-18T22:11:15.293Z,97204.84
2022-10-18T22:13:41.615Z,97210.19
2022-10-18T22:16:07.945Z,97205.94
2022-10-18T22:18:34.290Z,97206.47
2022-10-18T22:21:00.636Z,97209.63
2022-10-18T22:23:26.961Z,97202.69
2022-10-18T22:25:53.306Z,97208.03
2022-10-18T22:28:19.652Z,97194.16
2022-10-18T22:30:45.989Z,97193.38
2022-10-18T22:33:12.316Z,97188.81
2022-10-18T22:35:38.649Z,97194.16
2022-10-18T22:38:04.989Z,97195.78
2022-10-18T22:40:31.317Z,97192.00
2022-10-18T22:42:57.652Z,97191.00
2022-10-18T22:45:23.989Z,97187.25
2022-10-18T22:47:50.326Z,97192.28
2022-10-18T22:50:16.669Z,97178.94
2022-10-18T22:52:43.009Z,97188.81
2022-10-18T22:55:09.351Z,97174.41
2022-10-18T22:57:35.681Z,97173.31
2022-10-18T23:00:02.025Z,97169.81
2022-10-18T23:02:28.372Z,97168.25
2022-10-18T23:04:54.714Z,97169.63
2022-10-18T23:07:21.043Z,97169.63
2022-10-18T23:09:47.400Z,97158.94
2022-10-18T23:12:13.737Z,97159.72
2022-10-18T23:14:40.077Z,97156.56
2022-10-18T23:17:06.410Z,97164.28
2022-10-18T23:19:32.740Z,97157.03
2022-10-18T23:21:59.072Z,97161.09
2022-10-18T23:24:25.402Z,97156.25
2022-10-18T23:26:51.741Z,97154.66
2022-10-18T23:29:18.071Z,97158.72
2022-10-18T23:31:44.409Z,97150.41
2022-10-18T23:34:10.746Z,97147.22
2022-10-18T23:36:37.118Z,97156.28
2022-10-18T23:39:03.500Z,97150.94
2022-10-18T23:41:29.836Z,97156.28
2022-10-18T23:43:56.174Z,97144.81
2022-10-18T23:46:22.513Z,97147.44
2022-10-18T23:48:48.940Z,97146.66
2022-10-18T23:51:15.288Z,97146.19
2022-10-18T23:53:41.635Z,97144.59
2022-10-18T23:56:07.979Z,97131.72
2022-10-18T23:58:34.298Z,97137.06
